createdAt,value
2023-03-06T00:01:09.005Z,7.15
2023-03-06T00:03:39.281Z,7.53
2023-03-06T00:06:14.368Z,8.02
2023-03-06T00:11:21.697Z,8.00
2023-03-06T00:13:59.789Z,7.53
2023-03-06T00:16:37.448Z,6.90
2023-03-06T00:19:05.310Z,7.80
2023-03-06T00:21:48.905Z,7.60
2023-03-06T00:24:27.625Z,7.38
2023-03-06T00:29:40.403Z,7.68
2023-03-06T00:32:14.553Z,7.53
2023-03-06T00:34:41.675Z,7.68
2023-03-06T00:37:10.045Z,7.68
2023-03-06T00:39:37.516Z,7.63
2023-03-06T00:42:16.058Z,6.75
2023-03-06T00:44:54.974Z,8.00
2023-03-06T00:47:26.661Z,7.95
2023-03-06T00:50:01.208Z,7.28
2023-03-06T00:52:28.354Z,8.45
2023-03-06T00:55:05.711Z,8.85
2023-03-06T00:57:40.276Z,7.68
2023-03-06T01:00:10.571Z,7.15
2023-03-06T01:02:38.738Z,7.55
2023-03-06T01:05:11.677Z,8.10
2023-03-06T01:07:41.688Z,7.40
2023-03-06T01:10:17.958Z,7.10
2023-03-06T01:12:48.251Z,8.30
2023-03-06T01:15:33.974Z,7.10
2023-03-06T01:18:10.609Z,6.88
2023-03-06T01:20:41.260Z,7.38
2023-03-06T01:23:30.901Z,7.80
2023-03-06T01:26:03.351Z,6.68
2023-03-06T01:28:30.356Z,8.02
2023-03-06T01:31:04.347Z,7.38
2023-03-06T01:33:40.458Z,7.18
2023-03-06T01:36:12.234Z,7.03
2023-03-06T01:38:42.362Z,8.27
2023-03-06T01:41:34.423Z,8.07
2023-03-06T01:44:07.335Z,7.60
2023-03-06T01:46:43.538Z,8.00
2023-03-06T01:49:19.957Z,7.82
2023-03-06T01:51:54.695Z,7.82
2023-03-06T01:54:29.130Z,7.22
2023-03-06T01:57:19.542Z,8.27
2023-03-06T01:59:53.146Z,8.07
2023-03-06T02:02:27.455Z,7.93
2023-03-06T02:04:54.487Z,7.38
2023-03-06T02:07:21.835Z,7.20
2023-03-06T02:09:51.952Z,7.45
2023-03-06T02:12:39.812Z,8.35
2023-03-06T02:15:29.984Z,7.60
2023-03-06T02:18:00.647Z,7.80
2023-03-06T02:20:52.019Z,7.05
2023-03-06T02:23:51.942Z,8.05
2023-03-06T02:26:22.202Z,7.95
2023-03-06T02:28:58.532Z,6.60
2023-03-06T02:31:33.436Z,6.40
2023-03-06T02:34:37.850Z,6.63
2023-03-06T02:37:15.094Z,7.82
2023-03-06T02:39:52.177Z,7.82
2023-03-06T02:42:25.350Z,7.82
2023-03-06T02:44:57.920Z,8.48
2023-03-06T02:50:00.907Z,7.05
2023-03-06T02:52:31.863Z,7.82
2023-03-06T02:55:01.807Z,7.70
2023-03-06T02:57:31.370Z,7.93
2023-03-06T02:59:59.725Z,6.85
2023-03-06T03:02:28.537Z,7.13
2023-03-06T03:05:07.047Z,8.43
2023-03-06T03:10:29.345Z,8.18
2023-03-06T03:12:59.454Z,7.07
2023-03-06T03:15:26.507Z,7.68
2023-03-06T03:17:53.522Z,8.80
2023-03-06T03:20:22.453Z,8.57
2023-03-06T03:22:51.361Z,7.28
2023-03-06T03:25:18.933Z,7.85
2023-03-06T03:27:46.260Z,8.20
2023-03-06T03:30:13.626Z,7.53
2023-03-06T03:32:42.822Z,8.13
2023-03-06T03:35:29.279Z,6.90
2023-03-06T03:38:11.038Z,7.80
2023-03-06T03:43:37.880Z,7.30
2023-03-06T03:46:14.006Z,7.32
2023-03-06T03:48:57.027Z,8.15
2023-03-06T03:51:23.813Z,7.68
2023-03-06T03:53:51.979Z,7.72
2023-03-06T03:56:18.919Z,7.30
2023-03-06T03:58:57.689Z,8.13
2023-03-06T04:01:39.675Z,8.70
2023-03-06T04:07:10.444Z,7.65
2023-03-06T04:09:40.317Z,7.00
2023-03-06T04:12:10.254Z,8.00
2023-03-06T04:14:39.913Z,7.97
2023-03-06T04:17:06.762Z,7.78
2023-03-06T04:19:33.910Z,8.18
2023-03-06T04:22:04.080Z,7.50
2023-03-06T04:24:42.292Z,7.55
2023-03-06T04:27:25.021Z,7.10
2023-03-06T04:30:04.441Z,8.20
2023-03-06T04:32:34.192Z,6.82
2023-03-06T04:35:01.290Z,7.90
2023-03-06T04:37:37.735Z,8.10
2023-03-06T04:40:13.729Z,8.70
2023-03-06T04:43:08.602Z,7.97
2023-03-06T04:45:35.700Z,7.90
2023-03-06T04:48:03.173Z,7.60
2023-03-06T04:50:43.146Z,8.05
2023-03-06T04:53:16.847Z,7.55
2023-03-06T04:55:48.182Z,6.60
2023-03-06T04:58:17.586Z,7.50
2023-03-06T05:00:44.480Z,6.85
2023-03-06T05:03:22.372Z,6.50
2023-03-06T05:06:10.751Z,6.85
2023-03-06T05:08:40.561Z,7.07
2023-03-06T05:11:20.667Z,8.38
2023-03-06T05:13:56.583Z,8.30
2023-03-06T05:16:26.451Z,7.13
2023-03-06T05:19:08.823Z,8.95
2023-03-06T05:21:42.118Z,6.97
2023-03-06T05:24:14.791Z,7.82
2023-03-06T05:26:51.584Z,8.27
2023-03-06T05:29:25.319Z,8.30
2023-03-06T05:32:08.839Z,9.02
2023-03-06T05:34:41.986Z,8.05
2023-03-06T05:37:08.998Z,8.43
2023-03-06T05:39:52.633Z,8.98
2023-03-06T05:42:23.233Z,9.80
2023-03-06T05:44:53.903Z,7.38
2023-03-06T05:47:26.768Z,7.20
2023-03-06T05:50:10.733Z,8.80
2023-03-06T05:55:38.658Z,7.55
2023-03-06T05:58:11.496Z,7.68
2023-03-06T06:00:42.019Z,7.40
2023-03-06T06:03:12.218Z,7.43
2023-03-06T06:05:40.319Z,10.85
2023-03-06T06:08:08.357Z,8.23
2023-03-06T06:10:36.466Z,7.03
2023-03-06T06:13:06.154Z,8.63
2023-03-06T06:15:43.026Z,9.02
2023-03-06T06:18:15.633Z,8.90
2023-03-06T06:20:42.480Z,9.27
2023-03-06T06:23:14.330Z,8.80
2023-03-06T06:25:41.320Z,9.85
2023-03-06T06:28:13.185Z,9.98
2023-03-06T06:30:42.785Z,8.65
2023-03-06T06:33:19.382Z,7.32
2023-03-06T06:35:46.458Z,9.20
2023-03-06T06:38:22.244Z,9.15
2023-03-06T06:41:19.341Z,9.73
2023-03-06T06:43:42.079Z,9.50
2023-03-06T06:46:53.391Z,9.23
2023-03-06T06:49:05.790Z,9.05
2023-03-06T06:51:39.013Z,9.60
2023-03-06T06:54:06.548Z,8.45
2023-03-06T06:56:34.759Z,7.85
2023-03-06T06:59:16.710Z,8.50
2023-03-06T07:04:23.484Z,7.40
2023-03-06T07:06:55.320Z,7.03
2023-03-06T07:09:22.563Z,6.70
2023-03-06T07:11:52.565Z,6.93
2023-03-06T07:14:21.543Z,6.07
2023-03-06T07:16:49.939Z,6.70
2023-03-06T07:19:19.777Z,6.75
2023-03-06T07:21:55.619Z,6.55
2023-03-06T07:24:22.481Z,7.82
2023-03-06T07:26:49.224Z,7.05
2023-03-06T07:29:16.174Z,7.05
2023-03-06T07:31:43.020Z,7.28
2023-03-06T07:34:17.859Z,6.32
2023-03-06T07:36:48.826Z,6.75
2023-03-06T07:39:15.750Z,6.05
2023-03-06T07:41:48.384Z,7.32
2023-03-06T07:44:15.163Z,7.20
2023-03-06T07:46:47.776Z,6.78
2023-03-06T07:49:14.693Z,6.50
2023-03-06T07:51:47.351Z,5.95
2023-03-06T07:54:14.176Z,3.90
2023-03-06T07:56:40.979Z,5.88
2023-03-06T07:59:11.945Z,6.13
2023-03-06T08:01:40.400Z,4.72
2023-03-06T08:04:07.292Z,5.60
2023-03-06T08:06:38.475Z,5.72
2023-03-06T08:09:11.571Z,4.88
2023-03-06T08:11:38.344Z,5.35
2023-03-06T08:14:05.308Z,4.82
2023-03-06T08:16:40.728Z,4.00
2023-03-06T08:19:29.069Z,5.60
2023-03-06T08:22:16.079Z,4.57
2023-03-06T08:24:43.822Z,5.10
2023-03-06T08:27:23.282Z,4.03
2023-03-06T08:30:03.772Z,2.65
2023-03-06T08:32:37.476Z,1.65
2023-03-06T08:35:17.320Z,1.90
2023-03-06T08:37:47.118Z,3.17
2023-03-06T08:40:27.855Z,3.13
2023-03-06T08:43:00.817Z,2.00
2023-03-06T08:45:55.105Z,2.33
2023-03-06T08:48:33.862Z,3.50
2023-03-06T08:51:05.309Z,2.13
2023-03-06T08:53:43.409Z,2.67
2023-03-06T08:56:35.038Z,2.05
2023-03-06T08:59:10.719Z,2.92
2023-03-06T09:01:46.701Z,1.75
2023-03-06T09:04:13.509Z,2.20
2023-03-06T09:06:49.295Z,2.60
2023-03-06T09:09:22.986Z,1.70
2023-03-06T09:11:51.370Z,1.77
2023-03-06T09:14:25.520Z,2.10
2023-03-06T09:17:02.201Z,2.45
2023-03-06T09:19:38.672Z,1.65
2023-03-06T09:22:08.686Z,2.05
2023-03-06T09:25:01.488Z,1.80
2023-03-06T09:27:33.198Z,1.45
2023-03-06T09:30:06.433Z,1.77
2023-03-06T09:32:33.334Z,1.67
2023-03-06T09:35:06.979Z,1.80
2023-03-06T09:37:42.774Z,1.73
2023-03-06T09:40:30.252Z,1.17
2023-03-06T09:42:59.771Z,1.17
2023-03-06T09:45:32.616Z,1.50
2023-03-06T09:48:13.690Z,1.77
2023-03-06T09:50:46.701Z,1.50
2023-03-06T09:53:31.821Z,1.30
2023-03-06T09:56:06.984Z,1.42
2023-03-06T09:58:50.325Z,1.50
2023-03-06T10:01:25.335Z,1.40
2023-03-06T10:04:09.253Z,1.20
2023-03-06T10:06:55.424Z,1.50
2023-03-06T10:09:43.364Z,1.67
2023-03-06T10:12:26.027Z,1.40
2023-03-06T10:17:35.484Z,1.30
2023-03-06T10:20:26.761Z,1.13
2023-03-06T10:23:31.164Z,1.52
2023-03-06T10:26:34.374Z,1.10
2023-03-06T10:29:29.741Z,1.20
2023-03-06T10:32:18.104Z,1.00
2023-03-06T10:34:48.260Z,1.02
2023-03-06T10:37:40.301Z,1.45
2023-03-06T10:40:23.053Z,1.20
2023-03-06T10:43:09.338Z,1.10
2023-03-06T10:45:49.540Z,1.20
2023-03-06T10:48:26.862Z,1.48
2023-03-06T10:51:23.350Z,1.15
2023-03-06T10:54:02.013Z,1.35
2023-03-06T10:56:58.067Z,1.33
2023-03-06T10:59:35.384Z,1.25
2023-03-06T11:02:27.509Z,1.30
2023-03-06T11:05:00.299Z,1.15
2023-03-06T11:07:37.861Z,1.20
2023-03-06T11:10:32.474Z,1.20
2023-03-06T11:13:06.446Z,1.05
2023-03-06T11:15:42.773Z,1.20
2023-03-06T11:18:09.441Z,0.90
2023-03-06T11:20:52.549Z,0.95
2023-03-06T11:23:55.480Z,1.15
2023-03-06T11:26:34.496Z,1.20
2023-03-06T11:29:38.582Z,1.10
2023-03-06T11:32:36.020Z,1.10
2023-03-06T11:35:41.310Z,1.40
2023-03-06T11:38:22.617Z,1.40
2023-03-06T11:40:59.952Z,1.17
2023-03-06T11:43:57.183Z,1.00
2023-03-06T11:46:52.395Z,0.88
2023-03-06T11:49:59.278Z,1.35
2023-03-06T11:52:52.320Z,1.25
2023-03-06T11:55:28.563Z,1.35
2023-03-06T11:58:14.587Z,1.23
2023-03-06T12:01:06.226Z,1.20
2023-03-06T12:04:07.175Z,1.13
2023-03-06T12:06:49.337Z,1.15
2023-03-06T12:09:44.004Z,1.00
2023-03-06T12:12:35.048Z,1.13
2023-03-06T12:15:26.999Z,1.20
2023-03-06T12:18:29.075Z,1.13
2023-03-06T12:21:13.994Z,1.10
2023-03-06T12:24:00.920Z,1.08
2023-03-06T12:26:39.409Z,1.00
2023-03-06T12:29:44.085Z,1.08
2023-03-06T12:33:12.430Z,1.33
2023-03-06T12:35:54.885Z,1.20
2023-03-06T12:38:46.688Z,1.33
2023-03-06T12:41:36.970Z,1.40
2023-03-06T12:44:50.392Z,0.90
2023-03-06T12:47:35.014Z,1.10
2023-03-06T12:50:22.680Z,1.00
2023-03-06T12:52:55.169Z,0.95
2023-03-06T12:58:37.089Z,1.00
2023-03-06T13:01:34.859Z,0.80
2023-03-06T13:04:38.833Z,0.93
2023-03-06T13:07:34.950Z,0.80
2023-03-06T13:10:16.450Z,0.90
2023-03-06T13:13:00.949Z,1.27
2023-03-06T13:16:03.841Z,1.02
2023-03-06T13:18:39.210Z,0.90
2023-03-06T13:21:06.036Z,0.93
2023-03-06T13:23:37.641Z,0.98
2023-03-06T13:26:25.699Z,1.03
2023-03-06T13:28:59.215Z,1.02
2023-03-06T13:31:28.291Z,1.40
2023-03-06T13:34:08.690Z,1.13
2023-03-06T13:36:46.368Z,1.70
2023-03-06T13:42:04.094Z,1.70
2023-03-06T13:44:44.583Z,1.20
2023-03-06T13:48:43.227Z,1.67
2023-03-06T13:51:36.065Z,1.33
2023-03-06T13:54:35.168Z,1.20
2023-03-06T13:57:43.729Z,1.23
2023-03-06T14:00:58.834Z,1.50
2023-03-06T14:03:40.138Z,1.55
2023-03-06T14:06:57.917Z,1.35
2023-03-06T14:09:46.324Z,1.30
2023-03-06T14:12:27.736Z,1.10
2023-03-06T14:15:13.186Z,1.40
2023-03-06T14:18:07.457Z,1.33
2023-03-06T14:20:54.006Z,1.23
2023-03-06T14:23:32.375Z,1.40
2023-03-06T14:26:25.186Z,1.38
2023-03-06T14:31:45.018Z,1.40
2023-03-06T14:34:30.173Z,1.23
2023-03-06T14:37:12.428Z,1.52
2023-03-06T14:45:18.930Z,1.30
2023-03-06T14:47:59.296Z,1.35
2023-03-06T14:50:39.401Z,1.27
2023-03-06T14:53:20.056Z,1.40
2023-03-06T14:56:06.257Z,1.33
2023-03-06T14:58:41.023Z,1.30
2023-03-06T15:01:10.987Z,1.40
2023-03-06T15:03:52.380Z,1.40
2023-03-06T15:06:38.715Z,1.30
2023-03-06T15:09:35.107Z,1.45
2023-03-06T15:12:09.675Z,1.58
2023-03-06T15:14:44.189Z,1.67
2023-03-06T15:17:24.227Z,1.48
2023-03-06T15:19:55.126Z,1.70
2023-03-06T15:22:29.245Z,1.20
2023-03-06T15:25:35.214Z,1.20
2023-03-06T15:28:29.111Z,1.42
2023-03-06T15:31:31.135Z,1.65
2023-03-06T15:34:08.078Z,1.70
2023-03-06T15:36:50.178Z,1.40
2023-03-06T15:42:30.920Z,1.17
2023-03-06T15:45:16.880Z,1.25
2023-03-06T15:47:53.860Z,1.25
2023-03-06T15:50:26.877Z,1.27
2023-03-06T15:52:56.951Z,1.38
2023-03-06T15:55:32.365Z,1.30
2023-03-06T15:58:07.456Z,1.20
2023-03-06T16:01:02.899Z,1.30
2023-03-06T16:03:31.866Z,1.35
2023-03-06T16:06:02.333Z,1.30
2023-03-06T16:08:34.009Z,1.50
2023-03-06T16:11:00.712Z,1.60
2023-03-06T16:13:29.052Z,1.20
2023-03-06T16:15:56.347Z,1.27
2023-03-06T16:18:25.948Z,1.35
2023-03-06T16:20:59.708Z,1.23
2023-03-06T16:23:26.512Z,1.40
2023-03-06T16:25:56.549Z,1.38
2023-03-06T16:28:34.585Z,1.52
2023-03-06T16:31:01.553Z,1.23
2023-03-06T16:33:30.068Z,1.40
2023-03-06T16:35:58.736Z,1.20
2023-03-06T16:38:25.597Z,1.35
2023-03-06T16:40:55.227Z,1.50
2023-03-06T16:43:22.015Z,1.30
2023-03-06T16:45:55.285Z,1.40
2023-03-06T16:48:22.457Z,1.38
2023-03-06T16:51:14.970Z,1.30
2023-03-06T16:53:58.025Z,1.20
2023-03-06T16:56:37.670Z,1.55
2023-03-06T16:59:08.231Z,1.35
2023-03-06T17:01:35.419Z,1.10
2023-03-06T17:04:02.216Z,1.20
2023-03-06T17:06:29.230Z,1.27
2023-03-06T17:08:58.351Z,0.93
2023-03-06T17:11:27.108Z,1.25
2023-03-06T17:13:55.483Z,1.35
2023-03-06T17:16:23.913Z,1.30
2023-03-06T17:19:03.694Z,1.10
2023-03-06T17:21:46.130Z,1.20
2023-03-06T17:24:13.327Z,1.00
2023-03-06T17:26:46.618Z,1.30
2023-03-06T17:29:19.267Z,1.20
2023-03-06T17:32:03.670Z,1.15
2023-03-06T17:34:30.449Z,1.30
2023-03-06T17:37:00.428Z,1.40
2023-03-06T17:39:44.218Z,1.35
2023-03-06T17:42:14.365Z,1.45
2023-03-06T17:44:41.676Z,1.58
2023-03-06T17:47:22.181Z,1.30
2023-03-06T17:49:52.273Z,1.55
2023-03-06T17:52:24.378Z,1.50
2023-03-06T17:54:51.351Z,1.40
2023-03-06T17:57:26.003Z,1.73
2023-03-06T17:59:57.379Z,1.60
2023-03-06T18:02:27.646Z,1.52
2023-03-06T18:04:59.378Z,1.40
2023-03-06T18:07:28.974Z,2.00
2023-03-06T18:10:04.220Z,1.63
2023-03-06T18:12:39.868Z,1.92
2023-03-06T18:15:07.285Z,1.73
2023-03-06T18:17:44.490Z,1.70
2023-03-06T18:20:19.815Z,1.77
2023-03-06T18:22:57.516Z,1.60
2023-03-06T18:25:38.817Z,1.70
2023-03-06T18:28:19.584Z,1.88
2023-03-06T18:30:48.701Z,1.52
2023-03-06T18:33:20.951Z,1.38
2023-03-06T18:35:57.114Z,1.60
2023-03-06T18:38:33.181Z,1.70
2023-03-06T18:41:05.206Z,1.42
2023-03-06T18:43:43.793Z,1.52
2023-03-06T18:46:14.556Z,1.60
2023-03-06T18:48:47.693Z,1.58
2023-03-06T18:51:21.105Z,1.80
2023-03-06T18:53:48.578Z,1.30
2023-03-06T18:56:21.446Z,1.25
2023-03-06T18:58:50.477Z,1.65
2023-03-06T19:01:21.340Z,1.48
2023-03-06T19:03:48.651Z,1.55
2023-03-06T19:06:28.021Z,1.60
2023-03-06T19:09:11.781Z,1.63
2023-03-06T19:11:38.656Z,1.40
2023-03-06T19:14:25.663Z,1.58
2023-03-06T19:16:57.120Z,1.48
2023-03-06T19:19:30.230Z,1.67
2023-03-06T19:22:01.058Z,1.73
2023-03-06T19:24:37.037Z,1.58
2023-03-06T19:27:11.549Z,1.50
2023-03-06T19:29:54.966Z,2.10
2023-03-06T19:32:37.143Z,2.03
2023-03-06T19:35:19.876Z,1.60
2023-03-06T19:40:47.887Z,1.63
2023-03-06T19:43:41.942Z,1.90
2023-03-06T19:46:19.401Z,1.80
2023-03-06T19:48:56.211Z,1.95
2023-03-06T19:51:58.111Z,1.70
2023-03-06T19:54:54.801Z,1.75
2023-03-06T19:57:31.385Z,2.03
2023-03-06T20:00:11.118Z,1.75
2023-03-06T20:02:39.818Z,2.10
2023-03-06T20:05:12.612Z,2.60
2023-03-06T20:07:39.414Z,2.28
2023-03-06T20:10:07.101Z,2.20
2023-03-06T20:12:37.726Z,2.30
2023-03-06T20:15:09.492Z,2.03
2023-03-06T20:17:49.822Z,2.17
2023-03-06T20:20:16.882Z,2.40
2023-03-06T20:22:52.864Z,2.50
2023-03-06T20:25:37.057Z,2.20
2023-03-06T20:28:11.241Z,2.80
2023-03-06T20:30:49.633Z,2.65
2023-03-06T20:33:22.531Z,3.10
2023-03-06T20:36:01.794Z,2.72
2023-03-06T20:38:39.752Z,2.65
2023-03-06T20:41:08.534Z,2.60
2023-03-06T20:43:47.417Z,3.17
2023-03-06T20:46:34.429Z,3.03
2023-03-06T20:49:49.276Z,3.08
2023-03-06T20:52:29.075Z,2.78
2023-03-06T20:55:03.242Z,2.63
2023-03-06T20:57:39.302Z,3.22
2023-03-06T21:00:20.143Z,2.80
2023-03-06T21:02:59.718Z,2.72
2023-03-06T21:05:40.683Z,2.83
2023-03-06T21:08:20.640Z,2.42
2023-03-06T21:10:56.000Z,2.65
2023-03-06T21:13:58.001Z,3.03
2023-03-06T21:16:32.395Z,2.88
2023-03-06T21:19:27.316Z,2.72
2023-03-06T21:22:01.530Z,2.53
2023-03-06T21:24:32.225Z,2.78
2023-03-06T21:26:59.255Z,2.67
2023-03-06T21:35:05.668Z,3.00
2023-03-06T21:37:43.628Z,2.72
2023-03-06T21:40:12.273Z,2.45
2023-03-06T21:42:50.656Z,2.90
2023-03-06T21:48:16.962Z,2.17
2023-03-06T21:50:45.295Z,3.03
2023-03-06T21:56:33.120Z,2.70
2023-03-06T21:59:08.202Z,3.42
2023-03-06T22:01:48.818Z,2.70
2023-03-06T22:04:33.571Z,2.70
2023-03-06T22:07:10.311Z,3.03
2023-03-06T22:09:43.182Z,2.63
2023-03-06T22:12:15.460Z,3.33
2023-03-06T22:14:50.721Z,2.73
2023-03-06T22:17:17.798Z,2.97
2023-03-06T22:22:56.134Z,3.33
2023-03-06T22:25:26.698Z,2.30
2023-03-06T22:27:54.642Z,2.70
2023-03-06T22:30:24.321Z,3.10
2023-03-06T22:32:56.370Z,3.22
2023-03-06T22:35:31.431Z,2.70
2023-03-06T22:38:23.471Z,2.97
2023-03-06T22:41:03.707Z,3.03
2023-03-06T22:43:53.533Z,2.60
2023-03-06T22:46:46.546Z,3.10
2023-03-06T22:49:26.123Z,3.05
2023-03-06T22:51:59.031Z,2.67
2023-03-06T22:54:46.578Z,2.78
2023-03-06T22:57:32.526Z,3.15
2023-03-06T22:59:59.882Z,3.00
2023-03-06T23:03:02.153Z,2.85
2023-03-06T23:05:35.859Z,2.72
2023-03-06T23:08:04.608Z,3.10
2023-03-06T23:10:34.355Z,2.80
2023-03-06T23:13:10.978Z,2.70
2023-03-06T23:15:47.848Z,3.10
2023-03-06T23:18:29.514Z,3.10
2023-03-06T23:21:13.930Z,2.97
2023-03-06T23:23:54.290Z,2.90
2023-03-06T23:26:42.040Z,3.08
2023-03-06T23:29:10.760Z,3.08
2023-03-06T23:32:05.603Z,3.13
2023-03-06T23:34:32.519Z,2.80
2023-03-06T23:37:10.143Z,3.22
2023-03-06T23:39:54.106Z,3.08
2023-03-06T23:42:55.581Z,3.20
2023-03-06T23:45:38.804Z,3.13
2023-03-06T23:48:12.321Z,3.17
2023-03-06T23:50:47.918Z,2.80
2023-03-06T23:53:14.863Z,2.60
2023-03-06T23:55:57.842Z,3.15
2023-03-06T23:58:45.245Z,3.17
